createdAt,value
2019-04-01T00:01:55.451Z,136.87
2019-04-01T00:04:25.094Z,137.90
2019-04-01T00:06:54.759Z,140.27
2019-04-01T00:09:24.502Z,138.20
2019-04-01T00:11:55.784Z,140.23
2019-04-01T00:14:26.669Z,143.17
2019-04-01T00:16:56.339Z,137.60
2019-04-01T00:19:26.004Z,143.17
2019-04-01T00:21:55.710Z,140.63
2019-04-01T00:24:25.358Z,141.30
2019-04-01T00:26:55.022Z,138.77
2019-04-01T00:29:24.683Z,141.87
2019-04-01T00:31:54.339Z,142.13
2019-04-01T00:34:23.983Z,139.90
2019-04-01T00:36:53.643Z,142.33
2019-04-01T00:39:23.287Z,140.33
2019-04-01T00:42:00.943Z,139.73
2019-04-01T00:44:30.587Z,143.53
2019-04-01T00:47:00.239Z,138.87
2019-04-01T00:49:29.883Z,141.40
2019-04-01T00:51:59.611Z,137.97
2019-04-01T00:54:29.265Z,143.67
2019-04-01T00:56:58.927Z,140.10
2019-04-01T00:59:28.575Z,139.30
2019-04-01T01:01:58.242Z,143.13
2019-04-01T01:04:27.887Z,137.90
2019-04-01T01:06:57.542Z,141.20
2019-04-01T01:09:27.187Z,139.33
2019-04-01T01:11:56.835Z,141.53
2019-04-01T01:14:26.531Z,140.53
2019-04-01T01:16:56.186Z,145.90
2019-04-01T01:19:25.927Z,138.57
2019-04-01T01:21:55.670Z,135.93
2019-04-01T01:24:25.306Z,136.13
2019-04-01T01:26:54.958Z,140.03
2019-04-01T01:29:24.607Z,136.00
2019-04-01T01:31:54.259Z,133.97
2019-04-01T01:34:24.055Z,135.77
2019-04-01T01:36:53.714Z,135.83
2019-04-01T01:39:23.350Z,137.20
2019-04-01T01:41:53.010Z,135.83
2019-04-01T01:44:22.663Z,136.20
2019-04-01T01:46:52.323Z,139.13
2019-04-01T01:49:21.971Z,134.53
2019-04-01T01:51:51.622Z,138.73
2019-04-01T01:54:21.268Z,134.30
2019-04-01T01:56:50.991Z,135.70
2019-04-01T01:59:20.636Z,137.83
2019-04-01T02:01:50.336Z,134.80
2019-04-01T02:04:20.027Z,132.43
2019-04-01T02:06:49.684Z,134.83
2019-04-01T02:09:19.329Z,132.83
2019-04-01T02:11:48.985Z,134.67
2019-04-01T02:14:18.638Z,133.17
2019-04-01T02:16:48.381Z,137.20
2019-04-01T02:19:18.080Z,134.43
2019-04-01T02:21:47.729Z,138.10
2019-04-01T02:24:17.365Z,132.87
2019-04-01T02:26:47.030Z,136.23
2019-04-01T02:29:16.686Z,140.33
2019-04-01T02:31:46.347Z,151.67
2019-04-01T02:34:15.996Z,141.93
2019-04-01T02:36:45.661Z,143.53
2019-04-01T02:39:15.299Z,170.90
2019-04-01T02:41:44.960Z,147.00
2019-04-01T02:44:14.607Z,142.60
2019-04-01T02:46:44.269Z,137.20
2019-04-01T02:49:13.900Z,135.77
2019-04-01T02:51:43.560Z,139.90
2019-04-01T02:54:13.220Z,143.63
2019-04-01T02:56:42.874Z,138.90
2019-04-01T02:59:12.519Z,141.47
2019-04-01T03:01:42.260Z,136.83
2019-04-01T03:04:11.910Z,136.70
2019-04-01T03:06:42.661Z,148.17
2019-04-01T03:09:13.280Z,141.93
2019-04-01T03:11:42.947Z,135.43
2019-04-01T03:14:12.625Z,137.77
2019-04-01T03:16:42.275Z,142.17
2019-04-01T03:19:12.017Z,134.80
2019-04-01T03:21:41.680Z,134.10
2019-04-01T03:24:11.355Z,133.33
2019-04-01T03:26:41.018Z,133.47
2019-04-01T03:29:10.730Z,132.67
2019-04-01T03:31:40.460Z,134.00
2019-04-01T03:34:10.123Z,141.80
2019-04-01T03:36:39.805Z,134.57
2019-04-01T03:39:09.475Z,134.57
2019-04-01T03:41:39.187Z,133.20
2019-04-01T03:44:08.915Z,134.13
2019-04-01T03:46:38.576Z,134.53
2019-04-01T03:49:08.288Z,135.27
2019-04-01T03:51:37.944Z,132.43
2019-04-01T03:54:07.600Z,136.03
2019-04-01T03:56:37.267Z,135.97
2019-04-01T03:59:06.942Z,135.83
2019-04-01T04:01:36.594Z,133.33
2019-04-01T04:04:06.236Z,134.40
2019-04-01T04:06:35.972Z,131.80
2019-04-01T04:09:06.555Z,130.83
2019-04-01T04:11:36.219Z,134.47
2019-04-01T04:14:05.944Z,131.17
2019-04-01T04:16:35.774Z,133.60
2019-04-01T04:19:05.557Z,132.80
2019-04-01T04:21:35.204Z,130.70
2019-04-01T04:24:04.927Z,128.07
2019-04-01T04:26:34.578Z,131.03
2019-04-01T04:29:04.406Z,129.70
2019-04-01T04:31:34.132Z,127.90
2019-04-01T04:34:03.857Z,127.97
2019-04-01T04:36:33.587Z,130.93
2019-04-01T04:39:05.071Z,128.20
2019-04-01T04:41:34.728Z,130.50
2019-04-01T04:44:04.551Z,128.30
2019-04-01T04:46:35.173Z,127.83
2019-04-01T04:49:05.165Z,129.43
2019-04-01T04:51:35.898Z,131.27
2019-04-01T04:54:05.551Z,130.60
2019-04-01T04:56:35.202Z,133.93
2019-04-01T04:59:04.935Z,132.13
2019-04-01T05:01:34.587Z,128.67
2019-04-01T05:04:04.230Z,129.87
2019-04-01T05:06:33.963Z,129.60
2019-04-01T05:09:05.710Z,130.93
2019-04-01T05:11:35.373Z,127.83
2019-04-01T05:14:05.234Z,130.57
2019-04-01T05:16:34.903Z,129.60
2019-04-01T05:19:04.631Z,127.43
2019-04-01T05:21:35.585Z,128.70
2019-04-01T05:24:05.331Z,129.73
2019-04-01T05:26:36.345Z,135.80
2019-04-01T05:29:06.372Z,130.27
2019-04-01T05:31:38.079Z,131.00
2019-04-01T05:34:10.278Z,130.27
2019-04-01T05:36:40.002Z,129.83
2019-04-01T05:39:09.826Z,128.93
2019-04-01T05:41:39.558Z,127.73
2019-04-01T05:44:09.727Z,139.97
2019-04-01T05:46:39.798Z,129.13
2019-04-01T05:49:10.450Z,127.20
2019-04-01T05:51:40.190Z,130.97
2019-04-01T05:54:09.923Z,129.00
2019-04-01T05:56:39.575Z,129.33
2019-04-01T05:59:09.506Z,128.03
2019-04-01T06:01:42.197Z,130.10
2019-04-01T06:04:11.930Z,131.87
2019-04-01T06:06:41.659Z,130.73
2019-04-01T06:09:11.395Z,133.53
2019-04-01T06:11:41.115Z,132.83
2019-04-01T06:14:11.454Z,133.43
2019-04-01T06:16:41.587Z,132.73
2019-04-01T06:19:11.390Z,138.10
2019-04-01T06:21:41.191Z,139.13
2019-04-01T06:24:10.986Z,136.60
2019-04-01T06:26:41.182Z,139.90
2019-04-01T06:29:11.123Z,132.97
2019-04-01T06:31:40.847Z,134.10
2019-04-01T06:34:10.674Z,138.30
2019-04-01T06:36:41.443Z,135.70
2019-04-01T06:39:11.104Z,140.17
2019-04-01T06:41:40.907Z,143.40
2019-04-01T06:44:10.551Z,148.87
2019-04-01T06:46:40.279Z,148.27
2019-04-01T06:49:10.275Z,149.50
2019-04-01T06:51:39.990Z,150.80
2019-04-01T06:54:09.795Z,152.37
2019-04-01T06:56:40.199Z,153.37
2019-04-01T06:59:10.605Z,150.87
2019-04-01T07:01:40.321Z,155.07
2019-04-01T07:04:11.055Z,153.03
2019-04-01T07:06:40.779Z,154.83
2019-04-01T07:09:10.456Z,151.37
2019-04-01T07:11:40.722Z,148.93
2019-04-01T07:14:10.655Z,151.20
2019-04-01T07:16:40.650Z,154.03
2019-04-01T07:19:10.559Z,153.63
2019-04-01T07:21:40.934Z,151.90
2019-04-01T07:24:11.271Z,150.73
2019-04-01T07:26:41.391Z,157.13
2019-04-01T07:29:11.577Z,156.37
2019-04-01T07:31:41.375Z,153.57
2019-04-01T07:37:34.415Z,152.93
2019-04-01T07:40:05.211Z,154.57
2019-04-01T07:42:34.948Z,163.50
2019-04-01T07:45:05.800Z,155.93
2019-04-01T07:47:36.534Z,158.13
2019-04-01T07:50:06.789Z,159.33
2019-04-01T07:52:36.415Z,158.23
2019-04-01T07:55:06.263Z,159.27
2019-04-01T07:57:36.918Z,158.43
2019-04-01T08:00:07.583Z,160.23
2019-04-01T08:02:37.779Z,158.60
2019-04-01T08:05:07.966Z,159.03
2019-04-01T08:07:37.720Z,158.13
2019-04-01T08:10:08.538Z,160.77
2019-04-01T08:12:38.370Z,161.13
2019-04-01T08:15:08.556Z,160.30
2019-04-01T08:17:38.271Z,159.53
2019-04-01T08:20:20.051Z,161.70
2019-04-01T08:22:50.816Z,159.37
2019-04-01T08:25:20.532Z,159.80
2019-04-01T08:27:50.422Z,159.43
2019-04-01T08:33:16.650Z,157.17
2019-04-01T08:35:46.346Z,154.47
2019-04-01T08:38:16.122Z,154.97
2019-04-01T08:40:45.890Z,154.63
2019-04-01T08:43:15.678Z,150.60
2019-04-01T08:45:59.491Z,151.23
2019-04-01T08:48:35.903Z,153.17
2019-04-01T08:51:05.551Z,154.00
2019-04-01T08:53:35.354Z,151.00
2019-04-01T08:56:05.433Z,156.90
2019-04-01T08:58:35.342Z,152.20
2019-04-01T09:01:05.454Z,153.07
2019-04-01T09:03:35.171Z,151.93
2019-04-01T09:06:05.109Z,152.47
2019-04-01T09:08:35.251Z,153.03
2019-04-01T09:11:04.959Z,151.90
2019-04-01T09:13:38.342Z,152.50
2019-04-01T09:16:08.608Z,155.70
2019-04-01T09:18:38.248Z,155.63
2019-04-01T09:21:08.821Z,155.40
2019-04-01T09:23:39.613Z,152.50
2019-04-01T09:26:09.252Z,151.43
2019-04-01T09:28:38.923Z,153.60
2019-04-01T09:31:08.558Z,151.30
2019-04-01T09:33:38.239Z,156.40
2019-04-01T09:36:07.876Z,155.50
2019-04-01T09:38:37.583Z,154.00
2019-04-01T09:41:07.335Z,158.23
2019-04-01T09:43:37.050Z,154.83
2019-04-01T09:46:06.747Z,153.37
2019-04-01T09:48:36.383Z,152.30
2019-04-01T09:51:06.084Z,151.20
2019-04-01T09:53:35.735Z,150.50
2019-04-01T09:56:05.714Z,151.03
2019-04-01T09:58:35.350Z,150.93
2019-04-01T10:01:05.046Z,151.07
2019-04-01T10:03:35.654Z,152.83
2019-04-01T10:06:05.447Z,151.77
2019-04-01T10:08:42.103Z,155.83
2019-04-01T10:11:06.492Z,154.43
2019-04-01T10:13:36.131Z,153.83
2019-04-01T10:16:05.754Z,155.33
2019-04-01T10:18:35.398Z,153.63
2019-04-01T10:21:05.175Z,151.50
2019-04-01T10:23:34.882Z,153.10
2019-04-01T10:26:05.675Z,155.37
2019-04-01T10:28:35.303Z,151.40
2019-04-01T10:31:05.398Z,152.83
2019-04-01T10:33:35.039Z,152.00
2019-04-01T10:36:04.742Z,152.37
2019-04-01T10:38:34.382Z,153.40
2019-04-01T10:41:04.455Z,157.33
2019-04-01T10:43:34.243Z,157.17
2019-04-01T10:46:03.940Z,157.83
2019-04-01T10:48:33.622Z,156.10
2019-04-01T10:51:03.433Z,152.13
2019-04-01T10:53:33.267Z,153.80
2019-04-01T10:56:02.994Z,152.20
2019-04-01T10:58:32.702Z,152.90
2019-04-01T11:01:02.560Z,151.33
2019-04-01T11:03:32.346Z,150.97
2019-04-01T11:06:02.019Z,153.00
2019-04-01T11:08:31.794Z,152.43
2019-04-01T11:11:01.627Z,150.20
2019-04-01T11:13:31.631Z,153.10
2019-04-01T11:16:01.434Z,155.87
2019-04-01T11:18:31.079Z,152.90
2019-04-01T11:21:00.704Z,152.20
2019-04-01T11:23:30.384Z,153.83
2019-04-01T11:26:00.022Z,151.93
2019-04-01T11:28:29.721Z,154.00
2019-04-01T11:30:59.415Z,155.57
2019-04-01T11:33:29.275Z,153.63
2019-04-01T11:35:59.020Z,155.07
2019-04-01T11:38:28.660Z,153.50
2019-04-01T11:40:58.507Z,156.03
2019-04-01T11:43:28.304Z,152.63
2019-04-01T11:45:58.086Z,151.87
2019-04-01T11:48:27.786Z,152.63
2019-04-01T11:50:57.400Z,155.27
2019-04-01T11:53:27.035Z,154.00
2019-04-01T11:55:56.711Z,151.60
2019-04-01T11:58:26.354Z,155.43
2019-04-01T12:00:55.984Z,152.33
2019-04-01T12:03:25.640Z,157.30
2019-04-01T12:05:55.424Z,154.70
2019-04-01T12:08:25.723Z,151.47
2019-04-01T12:10:55.503Z,153.03
2019-04-01T12:13:25.199Z,154.60
2019-04-01T12:15:54.904Z,152.33
2019-04-01T12:18:24.548Z,152.37
2019-04-01T12:20:54.463Z,158.43
2019-04-01T12:23:24.198Z,152.20
2019-04-01T12:25:53.914Z,152.77
2019-04-01T12:28:23.657Z,152.53
2019-04-01T12:30:53.284Z,153.23
2019-04-01T12:33:25.934Z,152.57
2019-04-01T12:35:54.347Z,151.80
2019-04-01T12:38:23.976Z,150.87
2019-04-01T12:40:53.742Z,151.93
2019-04-01T12:43:23.767Z,152.00
2019-04-01T12:45:54.815Z,152.97
2019-04-01T12:48:25.644Z,152.27
2019-04-01T12:50:55.626Z,156.47
2019-04-01T12:53:25.403Z,152.67
2019-04-01T12:55:55.044Z,155.57
2019-04-01T12:58:25.348Z,155.57
2019-04-01T13:00:55.423Z,156.03
2019-04-01T13:03:25.074Z,155.43
2019-04-01T13:05:54.774Z,155.97
2019-04-01T13:08:25.386Z,153.03
2019-04-01T13:10:56.688Z,153.17
2019-04-01T13:13:26.451Z,153.63
2019-04-01T13:15:56.167Z,152.57
2019-04-01T13:18:25.800Z,153.67
2019-04-01T13:20:55.499Z,154.07
2019-04-01T13:23:25.139Z,156.30
2019-04-01T13:25:54.846Z,154.57
2019-04-01T13:28:25.962Z,158.77
2019-04-01T13:30:55.903Z,154.60
2019-04-01T13:33:25.543Z,153.30
2019-04-01T13:35:55.183Z,153.80
2019-04-01T13:38:24.819Z,155.67
2019-04-01T13:40:54.455Z,160.07
2019-04-01T13:43:24.106Z,156.23
2019-04-01T13:45:53.728Z,158.40
2019-04-01T13:48:23.367Z,156.90
2019-04-01T13:50:53.066Z,156.87
2019-04-01T13:53:22.706Z,158.03
2019-04-01T13:55:52.335Z,157.53
2019-04-01T13:58:21.975Z,155.53
2019-04-01T14:00:51.686Z,156.33
2019-04-01T14:03:21.327Z,157.40
2019-04-01T14:05:50.951Z,155.77
2019-04-01T14:08:22.305Z,154.97
2019-04-01T14:10:51.996Z,157.50
2019-04-01T14:13:21.637Z,156.63
2019-04-01T14:15:51.620Z,159.40
2019-04-01T14:18:21.475Z,156.77
2019-04-01T14:20:51.560Z,155.00
2019-04-01T14:23:23.399Z,159.23
2019-04-01T14:25:52.611Z,157.63
2019-04-01T14:28:22.261Z,158.97
2019-04-01T14:30:51.972Z,159.83
2019-04-01T14:33:21.602Z,158.33
2019-04-01T14:35:51.223Z,158.80
2019-04-01T14:38:20.940Z,157.13
2019-04-01T14:40:50.620Z,158.50
2019-04-01T14:43:20.386Z,157.00
2019-04-01T14:45:50.102Z,157.27
2019-04-01T14:48:19.740Z,171.83
2019-04-01T14:50:49.367Z,158.23
2019-04-01T14:53:18.999Z,160.93
2019-04-01T14:55:48.635Z,158.33
2019-04-01T14:58:18.275Z,160.27
2019-04-01T15:00:47.904Z,157.63
2019-04-01T15:03:17.611Z,159.43
2019-04-01T15:05:48.919Z,157.77
2019-04-01T15:08:19.436Z,157.73
2019-04-01T15:10:49.519Z,156.73
2019-04-01T15:13:19.154Z,157.80
2019-04-01T15:15:48.948Z,158.13
2019-04-01T15:18:18.703Z,156.77
2019-04-01T15:20:48.330Z,160.20
2019-04-01T15:23:18.078Z,156.57
2019-04-01T15:25:47.706Z,157.77
2019-04-01T15:28:17.346Z,159.10
2019-04-01T15:30:47.063Z,162.00
2019-04-01T15:33:17.671Z,158.47
2019-04-01T15:35:47.374Z,164.90
2019-04-01T15:38:17.014Z,156.73
2019-04-01T15:40:47.215Z,159.10
2019-04-01T15:43:17.347Z,160.00
2019-04-01T15:45:46.979Z,157.43
2019-04-01T15:48:16.615Z,157.70
2019-04-01T15:50:46.266Z,158.67
2019-04-01T15:53:15.910Z,160.53
2019-04-01T15:55:45.530Z,158.83
2019-04-01T15:58:15.179Z,156.50
2019-04-01T16:00:44.894Z,157.93
2019-04-01T16:03:14.587Z,156.53
2019-04-01T16:05:44.222Z,160.47
2019-04-01T16:08:13.954Z,156.67
2019-04-01T16:10:43.602Z,157.53
2019-04-01T16:13:14.206Z,159.10
2019-04-01T16:15:44.087Z,159.13
2019-04-01T16:18:13.795Z,158.57
2019-04-01T16:20:43.443Z,156.57
2019-04-01T16:23:13.087Z,162.37
2019-04-01T16:25:42.740Z,156.30
2019-04-01T16:28:12.369Z,160.73
2019-04-01T16:30:42.023Z,157.87
2019-04-01T16:33:11.663Z,158.60
2019-04-01T16:35:41.408Z,154.20
2019-04-01T16:38:11.074Z,157.43
2019-04-01T16:40:40.800Z,157.43
2019-04-01T16:43:10.430Z,155.90
2019-04-01T16:45:40.350Z,159.50
2019-04-01T16:48:10.055Z,154.97
2019-04-01T16:50:39.849Z,156.40
2019-04-01T16:53:09.479Z,160.50
2019-04-01T16:55:39.131Z,155.53
2019-04-01T16:58:08.775Z,158.77
2019-04-01T17:00:38.415Z,160.23
2019-04-01T17:03:08.046Z,155.07
2019-04-01T17:05:37.755Z,164.20
2019-04-01T17:08:07.474Z,157.93
2019-04-01T17:10:37.115Z,159.27
2019-04-01T17:13:08.211Z,155.73
2019-04-01T17:15:38.007Z,155.30
2019-04-01T17:18:07.639Z,157.80
2019-04-01T17:20:37.358Z,158.23
2019-04-01T17:23:07.319Z,156.23
2019-04-01T17:25:36.960Z,153.50
2019-04-01T17:28:06.735Z,158.43
2019-04-01T17:30:37.518Z,153.13
2019-04-01T17:33:08.612Z,153.30
2019-04-01T17:35:38.567Z,155.20
2019-04-01T17:38:08.268Z,156.03
2019-04-01T17:40:37.912Z,154.73
2019-04-01T17:43:09.493Z,160.20
2019-04-01T17:45:40.750Z,154.37
2019-04-01T17:48:10.880Z,157.93
2019-04-01T17:50:40.698Z,154.40
2019-04-01T17:53:11.580Z,155.00
2019-04-01T17:55:41.308Z,157.53
2019-04-01T17:58:11.015Z,155.17
2019-04-01T18:00:44.295Z,158.03
2019-04-01T18:03:13.999Z,157.30
2019-04-01T18:05:43.775Z,153.40
2019-04-01T18:08:13.492Z,153.57
2019-04-01T18:10:43.132Z,155.03
2019-04-01T18:13:12.758Z,154.07
2019-04-01T18:15:42.506Z,155.03
2019-04-01T18:18:25.788Z,153.80
2019-04-01T18:20:43.627Z,154.93
2019-04-01T18:23:13.269Z,155.30
2019-04-01T18:25:42.903Z,156.87
2019-04-01T18:28:13.072Z,156.30
2019-04-01T18:30:43.235Z,153.50
2019-04-01T18:33:12.862Z,154.77
2019-04-01T18:35:44.798Z,157.20
2019-04-01T18:38:14.278Z,154.50
2019-04-01T18:40:43.918Z,154.33
2019-04-01T18:43:13.608Z,156.23
2019-04-01T18:45:43.266Z,154.03
2019-04-01T18:48:14.553Z,162.43
2019-04-01T18:50:44.378Z,157.27
2019-04-01T18:53:14.088Z,155.57
2019-04-01T18:55:43.882Z,156.73
2019-04-01T18:58:13.510Z,156.70
2019-04-01T19:00:43.194Z,155.07
2019-04-01T19:03:12.853Z,154.37
2019-04-01T19:05:42.518Z,152.97
2019-04-01T19:08:12.175Z,154.50
2019-04-01T19:10:42.074Z,155.23
2019-04-01T19:13:12.752Z,152.70
2019-04-01T19:15:43.783Z,154.30
2019-04-01T19:18:14.846Z,154.97
2019-04-01T19:20:55.580Z,154.20
2019-04-01T19:23:15.842Z,154.70
2019-04-01T19:25:45.792Z,155.77
2019-04-01T19:28:15.419Z,155.13
2019-04-01T19:30:45.135Z,155.00
2019-04-01T19:33:14.850Z,155.60
2019-04-01T19:35:44.516Z,155.50
2019-04-01T19:38:14.172Z,155.23
2019-04-01T19:40:43.823Z,153.33
2019-04-01T19:43:13.464Z,152.30
2019-04-01T19:45:43.395Z,153.03
2019-04-01T19:48:13.041Z,155.07
2019-04-01T19:50:42.671Z,153.43
2019-04-01T19:53:12.384Z,158.63
2019-04-01T19:55:43.830Z,154.30
2019-04-01T19:58:13.363Z,155.10
2019-04-01T20:00:43.582Z,155.23
2019-04-01T20:03:13.351Z,156.80
2019-04-01T20:05:42.994Z,154.80
2019-04-01T20:08:14.169Z,154.87
2019-04-01T20:10:44.090Z,160.00
2019-04-01T20:13:13.744Z,154.23
2019-04-01T20:15:43.383Z,153.77
2019-04-01T20:18:13.114Z,155.17
2019-04-01T20:20:42.759Z,154.93
2019-04-01T20:23:12.423Z,154.77
2019-04-01T20:25:42.139Z,154.83
2019-04-01T20:28:12.949Z,152.87
2019-04-01T20:30:42.899Z,153.60
2019-04-01T20:33:18.186Z,154.47
2019-04-01T20:35:43.982Z,153.80
2019-04-01T20:38:13.633Z,156.87
2019-04-01T20:40:43.277Z,154.17
2019-04-01T20:43:15.220Z,154.23
2019-04-01T20:45:45.052Z,155.67
2019-04-01T20:48:14.715Z,158.60
2019-04-01T20:50:44.356Z,155.37
2019-04-01T20:53:14.073Z,157.43
2019-04-01T20:55:48.351Z,154.47
2019-04-01T20:58:15.048Z,152.67
2019-04-01T21:00:44.865Z,155.53
2019-04-01T21:03:14.675Z,153.43
2019-04-01T21:05:44.393Z,153.00
2019-04-01T21:08:14.034Z,152.50
2019-04-01T21:10:43.668Z,154.27
2019-04-01T21:13:13.326Z,153.33
2019-04-01T21:15:42.963Z,153.63
2019-04-01T21:18:12.599Z,153.43
2019-04-01T21:20:42.310Z,151.80
2019-04-01T21:23:12.450Z,155.47
2019-04-01T21:25:42.075Z,153.47
2019-04-01T21:28:11.721Z,155.50
2019-04-01T21:30:41.342Z,152.87
2019-04-01T21:33:10.987Z,152.73
2019-04-01T21:35:40.622Z,155.30
2019-04-01T21:38:10.258Z,154.93
2019-04-01T21:40:39.895Z,163.17
2019-04-01T21:43:09.658Z,153.23
2019-04-01T21:45:39.282Z,155.13
2019-04-01T21:48:10.368Z,160.50
2019-04-01T21:50:40.298Z,158.97
2019-04-01T21:53:10.011Z,155.67
2019-04-01T21:55:39.632Z,153.90
2019-04-01T21:58:09.345Z,155.73
2019-04-01T22:00:53.214Z,154.70
2019-04-01T22:03:23.123Z,154.27
2019-04-01T22:05:54.371Z,161.70
2019-04-01T22:08:24.016Z,154.97
2019-04-01T22:10:53.710Z,154.80
2019-04-01T22:13:23.423Z,154.47
2019-04-01T22:15:53.071Z,153.77
2019-04-01T22:18:22.798Z,155.80
2019-04-01T22:20:53.604Z,153.77
2019-04-01T22:23:23.251Z,153.97
2019-04-01T22:25:52.878Z,154.70
2019-04-01T22:28:22.650Z,152.67
2019-04-01T22:30:52.329Z,158.53
2019-04-01T22:33:21.974Z,154.03
2019-04-01T22:35:51.606Z,156.53
2019-04-01T22:38:25.215Z,153.30
2019-04-01T22:40:52.735Z,156.03
2019-04-01T22:43:22.552Z,154.63
2019-04-01T22:45:52.197Z,152.67
2019-04-01T22:48:21.831Z,158.47
2019-04-01T22:50:51.458Z,155.57
2019-04-01T22:53:21.103Z,153.37
2019-04-01T22:55:50.735Z,153.53
2019-04-01T22:58:21.938Z,154.57
2019-04-01T23:00:51.756Z,152.13
2019-04-01T23:03:21.390Z,156.87
2019-04-01T23:05:51.023Z,153.17
2019-04-01T23:08:20.659Z,153.53
2019-04-01T23:10:50.378Z,154.37
2019-04-01T23:13:20.177Z,154.40
2019-04-01T23:15:50.138Z,154.10
2019-04-01T23:18:19.771Z,153.53
2019-04-01T23:20:49.418Z,156.70
2019-04-01T23:23:19.039Z,152.87
2019-04-01T23:25:48.683Z,153.10
2019-04-01T23:28:18.311Z,153.63
2019-04-01T23:30:48.156Z,152.70
2019-04-01T23:33:18.730Z,154.70
2019-04-01T23:35:48.389Z,153.43
2019-04-01T23:38:18.018Z,151.60
2019-04-01T23:40:47.667Z,155.13
2019-04-01T23:43:17.299Z,152.90
2019-04-01T23:45:46.948Z,155.27
2019-04-01T23:48:16.574Z,152.30
2019-04-01T23:50:46.210Z,155.90
2019-04-01T23:53:15.850Z,153.93
2019-04-01T23:55:45.526Z,153.20
2019-04-01T23:58:15.198Z,153.93
